createdAt,value
2022-08-23T00:00:18.906Z,2.00
2022-08-23T00:01:18.861Z,1.90
2022-08-23T00:02:23.401Z,2.00
2022-08-23T00:03:18.923Z,1.80
2022-08-23T00:04:19.646Z,2.00
2022-08-23T00:05:18.817Z,1.60
2022-08-23T00:06:18.829Z,2.00
2022-08-23T00:07:18.794Z,2.00
2022-08-23T00:08:18.788Z,2.30
2022-08-23T00:09:18.777Z,2.10
2022-08-23T00:10:18.761Z,1.80
2022-08-23T00:11:18.768Z,2.20
2022-08-23T00:12:18.768Z,1.70
2022-08-23T00:13:18.736Z,2.00
2022-08-23T00:14:18.726Z,2.10
2022-08-23T00:15:18.722Z,2.30
2022-08-23T00:16:18.717Z,1.60
2022-08-23T00:17:31.172Z,2.10
2022-08-23T00:18:18.704Z,2.40
2022-08-23T00:19:18.746Z,1.90
2022-08-23T00:20:18.662Z,1.80
2022-08-23T00:21:18.671Z,2.20
2022-08-23T00:22:18.647Z,2.80
2022-08-23T00:23:18.648Z,2.30
2022-08-23T00:24:18.626Z,1.80
2022-08-23T00:25:18.621Z,1.80
2022-08-23T00:26:18.625Z,2.00
2022-08-23T00:27:18.609Z,1.80
2022-08-23T00:28:18.587Z,1.90
2022-08-23T00:29:18.609Z,1.90
2022-08-23T00:30:18.587Z,1.90
2022-08-23T00:31:18.584Z,2.00
2022-08-23T00:32:18.543Z,2.30
2022-08-23T00:33:18.545Z,2.20
2022-08-23T00:34:18.525Z,2.20
2022-08-23T00:35:26.835Z,2.30
2022-08-23T00:36:18.550Z,1.60
2022-08-23T00:37:18.530Z,2.10
2022-08-23T00:38:34.357Z,2.00
2022-08-23T00:39:18.492Z,2.50
2022-08-23T00:40:18.596Z,2.20
2022-08-23T00:41:18.481Z,1.90
2022-08-23T00:42:18.455Z,2.20
2022-08-23T00:43:18.445Z,2.20
2022-08-23T00:44:18.429Z,2.20
2022-08-23T00:45:18.421Z,2.30
2022-08-23T00:46:18.431Z,2.00
2022-08-23T00:47:18.403Z,2.20
2022-08-23T00:48:18.402Z,2.20
2022-08-23T00:49:18.394Z,1.80
2022-08-23T00:50:23.757Z,2.00
2022-08-23T00:51:18.400Z,1.90
2022-08-23T00:52:18.349Z,2.40
2022-08-23T00:53:18.355Z,2.20
2022-08-23T00:54:18.339Z,2.20
2022-08-23T00:55:18.326Z,2.00
2022-08-23T00:56:18.361Z,2.20
2022-08-23T00:57:18.304Z,2.00
2022-08-23T00:58:18.298Z,1.80
2022-08-23T00:59:18.285Z,2.10
2022-08-23T01:00:18.277Z,2.50
2022-08-23T01:01:18.409Z,2.30
2022-08-23T01:02:18.259Z,1.90
2022-08-23T01:03:18.255Z,2.40
2022-08-23T01:04:18.237Z,2.10
2022-08-23T01:05:18.227Z,2.30
2022-08-23T01:06:18.236Z,2.00
2022-08-23T01:07:18.205Z,2.30
2022-08-23T01:08:18.197Z,2.10
2022-08-23T01:09:18.190Z,2.20
2022-08-23T01:10:18.182Z,2.40
2022-08-23T01:11:18.211Z,1.90
2022-08-23T01:12:19.201Z,2.90
2022-08-23T01:13:18.156Z,2.30
2022-08-23T01:14:18.136Z,2.00
2022-08-23T01:15:18.144Z,2.10
2022-08-23T01:16:18.172Z,2.30
2022-08-23T01:17:18.113Z,2.10
2022-08-23T01:18:18.098Z,2.30
2022-08-23T01:19:18.099Z,2.00
2022-08-23T01:20:18.079Z,2.10
2022-08-23T01:21:18.191Z,2.00
2022-08-23T01:22:18.058Z,2.20
2022-08-23T01:23:18.054Z,1.90
2022-08-23T01:24:27.537Z,2.40
2022-08-23T01:25:18.049Z,2.10
2022-08-23T01:26:21.683Z,2.60
2022-08-23T01:27:18.041Z,2.20
2022-08-23T01:28:18.007Z,2.30
2022-08-23T01:29:17.997Z,2.10
2022-08-23T01:30:17.990Z,2.70
2022-08-23T01:31:17.986Z,2.50
2022-08-23T01:32:17.968Z,2.10
2022-08-23T01:33:17.957Z,1.90
2022-08-23T01:34:17.945Z,1.70
2022-08-23T01:35:18.032Z,2.00
2022-08-23T01:36:17.933Z,2.40
2022-08-23T01:37:17.939Z,2.00
2022-08-23T01:38:17.903Z,2.00
2022-08-23T01:39:17.897Z,2.40
2022-08-23T01:40:17.996Z,2.10
2022-08-23T01:41:17.879Z,2.20
2022-08-23T01:42:17.898Z,2.50
2022-08-23T01:43:17.862Z,2.20
2022-08-23T01:44:17.860Z,1.90
2022-08-23T01:45:17.841Z,2.00
2022-08-23T01:46:17.832Z,2.60
2022-08-23T01:47:17.836Z,2.10
2022-08-23T01:48:17.816Z,2.30
2022-08-23T01:49:17.804Z,2.70
2022-08-23T01:50:17.792Z,2.20
2022-08-23T01:51:17.778Z,2.10
2022-08-23T01:52:17.786Z,2.30
2022-08-23T01:53:17.772Z,2.60
2022-08-23T01:54:17.748Z,2.40
2022-08-23T01:55:17.740Z,2.20
2022-08-23T01:56:17.730Z,2.50
2022-08-23T01:57:17.762Z,2.20
2022-08-23T01:58:17.712Z,2.20
2022-08-23T01:59:17.711Z,3.00
2022-08-23T02:00:17.689Z,2.70
2022-08-23T02:01:17.723Z,2.10
2022-08-23T02:02:17.691Z,2.40
2022-08-23T02:03:17.663Z,2.30
2022-08-23T02:04:17.647Z,2.60
2022-08-23T02:05:18.998Z,2.60
2022-08-23T02:06:17.632Z,2.60
2022-08-23T02:07:17.660Z,2.40
2022-08-23T02:08:17.614Z,2.60
2022-08-23T02:09:18.195Z,2.00
2022-08-23T02:10:17.605Z,2.90
2022-08-23T02:11:17.586Z,2.60
2022-08-23T02:12:23.594Z,2.30
2022-08-23T02:13:17.564Z,2.40
2022-08-23T02:14:17.551Z,2.20
2022-08-23T02:15:17.549Z,2.40
2022-08-23T02:16:17.531Z,2.70
2022-08-23T02:17:17.541Z,2.00
2022-08-23T02:18:17.511Z,2.60
2022-08-23T02:19:17.507Z,2.50
2022-08-23T02:20:17.492Z,2.00
2022-08-23T02:21:17.487Z,2.50
2022-08-23T02:22:17.492Z,2.10
2022-08-23T02:23:17.471Z,1.70
2022-08-23T02:24:17.455Z,1.90
2022-08-23T02:25:17.448Z,1.90
2022-08-23T02:26:17.431Z,1.90
2022-08-23T02:27:17.443Z,1.90
2022-08-23T02:28:17.414Z,1.50
2022-08-23T02:29:17.410Z,2.40
2022-08-23T02:30:17.395Z,2.30
2022-08-23T02:31:17.388Z,2.10
2022-08-23T02:32:17.390Z,1.90
2022-08-23T02:33:17.371Z,2.10
2022-08-23T02:35:27.439Z,2.00
2022-08-23T02:36:28.434Z,2.20
2022-08-23T02:37:28.433Z,1.90
2022-08-23T02:38:28.421Z,2.30
2022-08-23T02:39:28.400Z,2.40
2022-08-23T02:40:28.400Z,2.20
2022-08-23T02:41:28.389Z,2.20
2022-08-23T02:42:28.392Z,2.40
2022-08-23T02:43:28.363Z,2.40
2022-08-23T02:44:28.359Z,2.50
2022-08-23T02:45:28.347Z,2.00
2022-08-23T02:46:28.338Z,2.10
2022-08-23T02:47:28.351Z,2.30
2022-08-23T02:48:28.312Z,2.30
2022-08-23T02:49:28.301Z,2.30
2022-08-23T02:50:28.307Z,2.60
2022-08-23T02:51:28.298Z,2.80
2022-08-23T02:52:28.289Z,2.70
2022-08-23T02:53:28.257Z,2.20
2022-08-23T02:54:28.253Z,2.50
2022-08-23T02:55:28.262Z,2.70
2022-08-23T02:56:28.243Z,2.40
2022-08-23T02:57:28.248Z,2.10
2022-08-23T02:58:28.220Z,2.20
2022-08-23T02:59:28.208Z,2.40
2022-08-23T03:00:28.200Z,2.40
2022-08-23T03:01:28.188Z,2.10
2022-08-23T03:02:28.255Z,2.40
2022-08-23T03:03:28.168Z,2.20
2022-08-23T03:04:28.155Z,2.60
2022-08-23T03:05:28.149Z,2.20
2022-08-23T03:06:28.129Z,2.00
2022-08-23T03:07:28.141Z,2.30
2022-08-23T03:08:28.132Z,2.30
2022-08-23T03:09:28.108Z,2.10
2022-08-23T03:10:28.096Z,2.10
2022-08-23T03:11:28.091Z,2.20
2022-08-23T03:12:28.086Z,2.30
2022-08-23T03:13:28.072Z,2.50
2022-08-23T03:14:28.063Z,2.10
2022-08-23T03:15:28.055Z,2.20
2022-08-23T03:16:28.035Z,1.90
2022-08-23T03:17:28.043Z,2.60
2022-08-23T03:18:28.013Z,2.30
2022-08-23T03:19:28.003Z,2.40
2022-08-23T03:20:28.000Z,2.00
2022-08-23T03:21:27.983Z,2.10
2022-08-23T03:22:27.984Z,2.70
2022-08-23T03:23:27.966Z,2.20
2022-08-23T03:24:27.951Z,2.20
2022-08-23T03:25:27.942Z,2.20
2022-08-23T03:26:27.941Z,1.90
2022-08-23T03:27:27.943Z,2.10
2022-08-23T03:28:27.910Z,2.10
2022-08-23T03:29:27.913Z,2.20
2022-08-23T03:30:27.858Z,2.10
2022-08-23T03:31:29.314Z,2.00
2022-08-23T03:32:27.829Z,2.40
2022-08-23T03:33:27.822Z,2.10
2022-08-23T03:34:27.795Z,2.00
2022-08-23T03:35:27.795Z,2.10
2022-08-23T03:36:28.437Z,2.50
2022-08-23T03:37:27.802Z,1.90
2022-08-23T03:38:27.757Z,1.70
2022-08-23T03:39:27.754Z,2.00
2022-08-23T03:40:27.745Z,2.00
2022-08-23T03:41:27.731Z,2.10
2022-08-23T03:42:28.576Z,2.10
2022-08-23T03:43:27.750Z,2.20
2022-08-23T03:44:27.827Z,2.00
2022-08-23T03:45:27.688Z,1.80
2022-08-23T03:46:30.979Z,2.20
2022-08-23T03:47:27.693Z,1.80
2022-08-23T03:48:27.658Z,1.80
2022-08-23T03:49:27.661Z,2.10
2022-08-23T03:50:27.639Z,2.20
2022-08-23T03:51:27.649Z,2.10
2022-08-23T03:52:27.630Z,2.00
2022-08-23T03:53:27.621Z,2.20
2022-08-23T03:54:27.594Z,2.40
2022-08-23T03:55:27.590Z,1.90
2022-08-23T03:56:27.586Z,1.60
2022-08-23T03:57:27.585Z,1.90
2022-08-23T03:58:27.554Z,2.30
2022-08-23T03:59:27.550Z,1.80
2022-08-23T04:00:27.536Z,2.10
2022-08-23T04:01:28.707Z,2.20
2022-08-23T04:02:27.535Z,2.30
2022-08-23T04:03:27.512Z,2.20
2022-08-23T04:04:27.496Z,2.10
2022-08-23T04:05:27.495Z,2.10
2022-08-23T04:06:27.484Z,2.50
2022-08-23T04:07:27.485Z,1.90
2022-08-23T04:08:33.365Z,2.00
2022-08-23T04:09:27.458Z,1.90
2022-08-23T04:10:27.434Z,2.30
2022-08-23T04:11:27.433Z,2.30
2022-08-23T04:12:27.432Z,1.90
2022-08-23T04:13:27.425Z,2.10
2022-08-23T04:14:27.401Z,2.60
2022-08-23T04:15:27.391Z,2.20
2022-08-23T04:16:27.377Z,2.40
2022-08-23T04:17:27.387Z,3.20
2022-08-23T04:18:27.370Z,2.90
2022-08-23T04:19:27.350Z,3.40
2022-08-23T04:20:27.337Z,2.60
2022-08-23T04:21:27.335Z,2.90
2022-08-23T04:22:27.353Z,2.80
2022-08-23T04:23:27.335Z,2.90
2022-08-23T04:24:27.298Z,3.10
2022-08-23T04:25:34.684Z,2.80
2022-08-23T04:26:30.257Z,2.50
2022-08-23T04:27:27.284Z,2.70
2022-08-23T04:28:27.257Z,3.10
2022-08-23T04:29:34.299Z,3.00
2022-08-23T04:30:27.251Z,2.70
2022-08-23T04:31:27.232Z,2.80
2022-08-23T04:32:28.629Z,2.30
2022-08-23T04:33:27.218Z,2.00
2022-08-23T04:34:28.794Z,2.10
2022-08-23T04:35:27.193Z,2.20
2022-08-23T04:36:27.185Z,2.20
2022-08-23T04:37:27.218Z,2.30
2022-08-23T04:38:27.157Z,2.10
2022-08-23T04:39:27.156Z,2.10
2022-08-23T04:40:27.213Z,2.00
2022-08-23T04:41:27.132Z,1.90
2022-08-23T04:42:27.140Z,2.00
2022-08-23T04:43:27.117Z,2.60
2022-08-23T04:44:27.098Z,2.20
2022-08-23T04:45:27.142Z,1.90
2022-08-23T04:46:27.095Z,1.70
2022-08-23T04:47:27.096Z,2.10
2022-08-23T04:48:27.069Z,1.50
2022-08-23T04:49:27.058Z,2.30
2022-08-23T04:50:27.039Z,1.50
2022-08-23T04:51:27.033Z,1.50
2022-08-23T04:52:27.059Z,1.80
2022-08-23T04:53:27.015Z,1.60
2022-08-23T04:54:26.997Z,1.60
2022-08-23T04:55:26.993Z,1.50
2022-08-23T04:56:26.978Z,1.60
2022-08-23T04:57:26.990Z,1.50
2022-08-23T04:58:26.963Z,1.80
2022-08-23T04:59:26.953Z,2.10
2022-08-23T05:00:27.972Z,1.20
2022-08-23T05:01:27.013Z,1.60
2022-08-23T05:02:26.950Z,1.30
2022-08-23T05:03:26.914Z,1.90
2022-08-23T05:04:26.897Z,1.60
2022-08-23T05:05:26.894Z,1.40
2022-08-23T05:06:26.881Z,1.60
2022-08-23T05:07:41.729Z,1.60
2022-08-23T05:08:26.886Z,1.70
2022-08-23T05:09:26.867Z,1.80
2022-08-23T05:10:26.921Z,1.50
2022-08-23T05:11:26.835Z,2.10
2022-08-23T05:12:26.834Z,1.80
2022-08-23T05:13:26.822Z,1.50
2022-08-23T05:14:26.800Z,1.30
2022-08-23T05:15:26.793Z,1.50
2022-08-23T05:16:26.784Z,1.30
2022-08-23T05:17:26.784Z,1.20
2022-08-23T05:18:26.757Z,1.60
2022-08-23T05:19:26.756Z,1.40
2022-08-23T05:20:26.740Z,2.00
2022-08-23T05:21:26.735Z,2.20
2022-08-23T05:22:26.733Z,2.40
2022-08-23T05:23:32.311Z,2.10
2022-08-23T05:24:26.706Z,2.10
2022-08-23T05:25:26.715Z,2.10
2022-08-23T05:26:26.679Z,2.00
2022-08-23T05:27:26.691Z,2.00
2022-08-23T05:28:26.663Z,2.00
2022-08-23T05:29:26.655Z,1.90
2022-08-23T05:30:26.643Z,1.90
2022-08-23T05:31:26.655Z,1.60
2022-08-23T05:32:29.355Z,2.00
2022-08-23T05:33:26.614Z,1.30
2022-08-23T05:34:26.601Z,1.70
2022-08-23T05:35:26.595Z,1.50
2022-08-23T05:36:26.583Z,1.40
2022-08-23T05:37:26.603Z,1.30
2022-08-23T05:38:26.577Z,1.40
2022-08-23T05:39:32.928Z,1.60
2022-08-23T05:40:26.555Z,1.50
2022-08-23T05:41:37.854Z,2.20
2022-08-23T05:42:26.525Z,1.40
2022-08-23T05:43:26.529Z,1.60
2022-08-23T05:44:26.524Z,1.60
2022-08-23T05:45:26.498Z,2.40
2022-08-23T05:46:26.628Z,2.00
2022-08-23T05:47:26.476Z,1.90
2022-08-23T05:48:26.476Z,2.20
2022-08-23T05:49:26.456Z,2.20
2022-08-23T05:50:26.439Z,2.00
2022-08-23T05:51:26.439Z,2.10
2022-08-23T05:52:26.435Z,2.00
2022-08-23T05:53:26.435Z,2.10
2022-08-23T05:54:26.422Z,2.30
2022-08-23T05:55:34.722Z,2.60
2022-08-23T05:56:26.390Z,2.00
2022-08-23T05:57:26.375Z,1.90
2022-08-23T05:58:26.374Z,1.90
2022-08-23T05:59:26.354Z,2.40
2022-08-23T06:00:38.139Z,2.40
2022-08-23T06:01:26.373Z,2.20
2022-08-23T06:02:26.326Z,1.90
2022-08-23T06:03:26.343Z,2.10
2022-08-23T06:04:26.301Z,1.90
2022-08-23T06:05:26.316Z,2.00
2022-08-23T06:06:35.082Z,2.10
2022-08-23T06:07:26.282Z,2.10
2022-08-23T06:08:26.280Z,2.10
2022-08-23T06:09:26.342Z,1.80
2022-08-23T06:10:26.271Z,1.90
2022-08-23T06:11:26.262Z,2.20
2022-08-23T06:12:26.220Z,2.00
2022-08-23T06:13:26.231Z,1.80
2022-08-23T06:14:26.279Z,2.00
2022-08-23T06:15:26.195Z,1.80
2022-08-23T06:16:26.196Z,2.00
2022-08-23T06:17:26.180Z,1.50
2022-08-23T06:18:26.199Z,1.70
2022-08-23T06:19:26.164Z,1.80
2022-08-23T06:20:26.187Z,2.00
2022-08-23T06:21:26.140Z,1.70
2022-08-23T06:22:26.126Z,1.80
2022-08-23T06:23:26.137Z,1.50
2022-08-23T06:24:26.109Z,1.60
2022-08-23T06:25:26.100Z,1.60
2022-08-23T06:26:26.094Z,1.40
2022-08-23T06:27:26.150Z,1.60
2022-08-23T06:28:26.288Z,1.80
2022-08-23T06:29:26.115Z,1.90
2022-08-23T06:30:26.049Z,1.70
2022-08-23T06:31:26.077Z,1.90
2022-08-23T06:32:26.075Z,1.70
2022-08-23T06:33:26.137Z,1.80
2022-08-23T06:34:26.044Z,1.60
2022-08-23T06:35:39.276Z,1.90
2022-08-23T06:36:25.990Z,2.00
2022-08-23T06:37:25.982Z,1.70
2022-08-23T06:38:26.008Z,1.80
2022-08-23T06:39:25.964Z,2.20
2022-08-23T06:40:26.023Z,1.90
2022-08-23T06:41:25.943Z,2.10
2022-08-23T06:42:41.266Z,1.80
2022-08-23T06:43:25.942Z,2.00
2022-08-23T06:44:25.928Z,2.20
2022-08-23T06:45:33.837Z,1.70
2022-08-23T06:46:28.178Z,1.80
2022-08-23T06:47:25.882Z,1.80
2022-08-23T06:48:25.885Z,1.80
2022-08-23T06:49:25.860Z,1.60
2022-08-23T06:50:25.952Z,2.10
2022-08-23T06:51:26.584Z,1.80
2022-08-23T06:52:25.841Z,1.70
2022-08-23T06:53:25.838Z,1.80
2022-08-23T06:54:26.531Z,1.80
2022-08-23T06:55:25.805Z,1.70
2022-08-23T06:56:25.801Z,1.40
2022-08-23T06:57:25.779Z,1.60
2022-08-23T06:58:25.782Z,1.50
2022-08-23T06:59:25.777Z,1.50
2022-08-23T07:00:25.831Z,1.50
2022-08-23T07:01:44.569Z,1.60
2022-08-23T07:02:25.874Z,2.10
2022-08-23T07:03:25.734Z,1.60
2022-08-23T07:04:25.716Z,1.70
2022-08-23T07:05:25.708Z,1.90
2022-08-23T07:06:25.702Z,1.70
2022-08-23T07:07:25.700Z,2.00
2022-08-23T07:08:25.697Z,1.60
2022-08-23T07:09:25.665Z,1.50
2022-08-23T07:10:25.643Z,1.50
2022-08-23T07:11:25.654Z,1.80
2022-08-23T07:12:25.624Z,1.70
2022-08-23T07:13:25.644Z,1.70
2022-08-23T07:14:25.615Z,1.40
2022-08-23T07:15:25.605Z,1.80
2022-08-23T07:16:25.638Z,1.60
2022-08-23T07:17:25.577Z,1.80
2022-08-23T07:18:25.585Z,1.70
2022-08-23T07:19:29.008Z,1.50
2022-08-23T07:20:25.556Z,1.60
2022-08-23T07:21:25.569Z,1.60
2022-08-23T07:22:25.555Z,1.60
2022-08-23T07:23:25.555Z,1.60
2022-08-23T07:24:28.243Z,1.50
2022-08-23T07:25:25.506Z,1.60
2022-08-23T07:26:25.492Z,1.50
2022-08-23T07:27:25.486Z,1.50
2022-08-23T07:28:25.494Z,1.40
2022-08-23T07:29:25.452Z,1.70
2022-08-23T07:30:25.480Z,1.50
2022-08-23T07:31:25.486Z,1.40
2022-08-23T07:32:25.468Z,1.50
2022-08-23T07:33:25.414Z,1.50
2022-08-23T07:34:25.411Z,1.50
2022-08-23T07:35:25.394Z,1.40
2022-08-23T07:36:25.405Z,1.50
2022-08-23T07:37:25.378Z,1.50
2022-08-23T07:38:25.392Z,1.40
2022-08-23T07:39:25.359Z,1.40
2022-08-23T07:40:25.418Z,1.60
2022-08-23T07:41:25.339Z,1.50
2022-08-23T07:42:25.330Z,1.40
2022-08-23T07:43:25.326Z,1.60
2022-08-23T07:44:27.407Z,1.60
2022-08-23T07:45:25.303Z,1.50
2022-08-23T07:46:25.314Z,1.50
2022-08-23T07:47:25.303Z,1.50
2022-08-23T07:48:50.377Z,1.70
2022-08-23T07:49:29.280Z,1.50
2022-08-23T07:50:25.251Z,1.50
2022-08-23T07:51:25.245Z,1.50
2022-08-23T07:52:25.250Z,1.50
2022-08-23T07:53:37.429Z,1.50
2022-08-23T07:54:25.221Z,1.90
2022-08-23T07:55:25.221Z,1.60
2022-08-23T07:56:25.193Z,1.60
2022-08-23T07:57:25.206Z,1.50
2022-08-23T07:58:25.195Z,1.90
2022-08-23T07:59:25.167Z,1.70
2022-08-23T08:00:25.160Z,1.60
2022-08-23T08:01:25.182Z,1.60
2022-08-23T08:02:25.187Z,1.80
2022-08-23T08:03:25.172Z,1.50
2022-08-23T08:04:25.115Z,1.40
2022-08-23T08:05:25.106Z,1.90
2022-08-23T08:06:25.093Z,1.90
2022-08-23T08:07:25.079Z,1.50
2022-08-23T08:08:25.091Z,1.40
2022-08-23T08:09:25.095Z,1.40
2022-08-23T08:10:25.063Z,1.70
2022-08-23T08:11:25.052Z,1.40
2022-08-23T08:12:25.032Z,1.60
2022-08-23T08:13:31.040Z,1.40
2022-08-23T08:14:25.008Z,1.40
2022-08-23T08:15:24.996Z,1.50
2022-08-23T08:16:25.017Z,1.40
2022-08-23T08:17:27.512Z,1.40
2022-08-23T08:18:24.986Z,1.40
2022-08-23T08:19:24.960Z,1.40
2022-08-23T08:20:24.974Z,1.60
2022-08-23T08:21:24.945Z,1.80
2022-08-23T08:22:24.963Z,1.70
2022-08-23T08:23:24.932Z,1.60
2022-08-23T08:24:24.926Z,1.50
2022-08-23T08:25:24.900Z,1.60
2022-08-23T08:26:24.901Z,1.40
2022-08-23T08:27:24.876Z,2.10
2022-08-23T08:28:24.906Z,1.70
2022-08-23T08:29:25.113Z,1.40
2022-08-23T08:30:26.083Z,1.90
2022-08-23T08:31:24.917Z,1.30
2022-08-23T08:32:24.855Z,1.60
2022-08-23T08:33:24.836Z,1.50
2022-08-23T08:34:24.836Z,1.40
2022-08-23T08:35:24.802Z,1.60
2022-08-23T08:36:24.945Z,1.40
2022-08-23T08:37:24.795Z,1.60
2022-08-23T08:38:24.791Z,1.70
2022-08-23T08:39:24.763Z,1.50
2022-08-23T08:40:24.755Z,1.40
2022-08-23T08:41:24.765Z,1.40
2022-08-23T08:42:24.801Z,1.50
2022-08-23T08:43:24.737Z,1.50
2022-08-23T08:44:24.736Z,1.60
2022-08-23T08:45:25.252Z,1.40
2022-08-23T08:46:25.995Z,1.40
2022-08-23T08:47:24.703Z,1.70
2022-08-23T08:48:24.688Z,1.50
2022-08-23T08:49:24.691Z,1.40
2022-08-23T08:50:24.701Z,1.80
2022-08-23T08:51:24.643Z,1.50
2022-08-23T08:52:24.654Z,1.50
2022-08-23T08:53:24.724Z,1.70
2022-08-23T08:54:24.624Z,1.30
2022-08-23T08:55:24.608Z,1.80
2022-08-23T08:56:24.602Z,1.50
2022-08-23T08:57:27.742Z,1.70
2022-08-23T08:58:24.586Z,1.30
2022-08-23T08:59:24.567Z,1.30
2022-08-23T09:00:24.581Z,1.70
2022-08-23T09:01:24.574Z,1.30
2022-08-23T09:02:32.603Z,1.40
2022-08-23T09:03:24.647Z,1.50
2022-08-23T09:04:24.526Z,1.40
2022-08-23T09:05:24.510Z,1.30
2022-08-23T09:06:24.530Z,1.60
2022-08-23T09:07:27.940Z,1.50
2022-08-23T09:08:24.529Z,1.40
2022-08-23T09:09:24.468Z,1.50
2022-08-23T09:10:24.465Z,1.20
2022-08-23T09:11:24.448Z,1.30
2022-08-23T09:12:24.479Z,1.40
2022-08-23T09:13:24.445Z,0.90
2022-08-23T09:14:24.419Z,1.10
2022-08-23T09:15:24.403Z,1.40
2022-08-23T09:16:24.426Z,1.80
2022-08-23T09:17:24.394Z,1.10
2022-08-23T09:18:24.400Z,0.90
2022-08-23T09:19:25.098Z,0.90
2022-08-23T09:20:24.403Z,1.00
2022-08-23T09:21:24.362Z,1.30
2022-08-23T09:22:24.354Z,1.80
2022-08-23T09:23:24.337Z,1.70
2022-08-23T09:24:24.327Z,1.30
2022-08-23T09:25:24.307Z,1.50
2022-08-23T09:26:24.326Z,1.50
2022-08-23T09:27:24.299Z,1.30
2022-08-23T09:28:24.296Z,1.00
2022-08-23T09:29:24.281Z,1.00
2022-08-23T09:30:24.261Z,0.80
2022-08-23T09:31:24.294Z,1.40
2022-08-23T09:32:24.256Z,0.80
2022-08-23T09:33:26.109Z,1.00
2022-08-23T09:34:24.261Z,1.10
2022-08-23T09:35:24.206Z,1.00
2022-08-23T09:36:24.259Z,1.20
2022-08-23T09:37:24.220Z,1.00
2022-08-23T09:38:24.203Z,1.10
2022-08-23T09:39:24.188Z,0.80
2022-08-23T09:40:24.305Z,1.00
2022-08-23T09:41:24.167Z,0.90
2022-08-23T09:42:24.154Z,0.90
2022-08-23T09:43:24.201Z,1.00
2022-08-23T09:44:24.136Z,1.20
2022-08-23T09:45:24.111Z,1.00
2022-08-23T09:46:24.276Z,0.80
2022-08-23T09:47:24.104Z,0.80
2022-08-23T09:48:28.126Z,0.80
2022-08-23T09:49:24.079Z,0.90
2022-08-23T09:50:24.077Z,0.90
2022-08-23T09:51:24.157Z,0.80
2022-08-23T09:52:24.069Z,0.80
2022-08-23T09:53:24.041Z,0.90
2022-08-23T09:54:24.049Z,0.90
2022-08-23T09:55:24.016Z,0.80
2022-08-23T09:56:24.002Z,0.90
2022-08-23T09:57:24.003Z,0.70
2022-08-23T09:58:23.997Z,0.60
2022-08-23T09:59:26.842Z,0.80
2022-08-23T10:00:23.972Z,0.80
2022-08-23T10:01:24.057Z,0.80
2022-08-23T10:02:23.963Z,0.80
2022-08-23T10:03:23.954Z,0.70
2022-08-23T10:04:23.957Z,1.00
2022-08-23T10:05:23.936Z,0.70
2022-08-23T10:06:23.929Z,1.00
2022-08-23T10:07:23.892Z,0.60
2022-08-23T10:08:23.904Z,0.80
2022-08-23T10:09:23.885Z,0.90
2022-08-23T10:10:23.868Z,1.20
2022-08-23T10:11:23.850Z,0.80
2022-08-23T10:12:23.858Z,1.10
2022-08-23T10:13:23.858Z,0.80
2022-08-23T10:14:28.692Z,1.00
2022-08-23T10:15:23.832Z,1.00
2022-08-23T10:16:23.894Z,0.90
2022-08-23T10:17:23.786Z,0.90
2022-08-23T10:18:23.809Z,0.90
2022-08-23T10:19:23.767Z,1.00
2022-08-23T10:20:23.764Z,0.70
2022-08-23T10:21:24.228Z,0.90
2022-08-23T10:22:23.746Z,0.70
2022-08-23T10:23:23.750Z,0.80
2022-08-23T10:24:23.724Z,0.80
2022-08-23T10:25:23.705Z,1.00
2022-08-23T10:26:23.700Z,1.00
2022-08-23T10:27:23.685Z,0.90
2022-08-23T10:28:23.697Z,0.90
2022-08-23T10:29:23.669Z,0.90
2022-08-23T10:30:23.671Z,0.70
2022-08-23T10:31:23.677Z,0.60
2022-08-23T10:32:23.663Z,0.80
2022-08-23T10:33:23.652Z,0.80
2022-08-23T10:34:23.617Z,0.90
2022-08-23T10:35:23.623Z,0.70
2022-08-23T10:36:23.603Z,1.10
2022-08-23T10:37:23.586Z,1.30
2022-08-23T10:38:23.592Z,0.90
2022-08-23T10:39:23.573Z,0.80
2022-08-23T10:40:23.622Z,0.70
2022-08-23T10:41:23.587Z,0.90
2022-08-23T10:42:23.540Z,0.80
2022-08-23T10:43:23.555Z,0.90
2022-08-23T10:44:23.545Z,0.90
2022-08-23T10:45:23.504Z,0.90
2022-08-23T10:46:23.582Z,0.70
2022-08-23T10:47:23.510Z,0.50
2022-08-23T10:48:23.480Z,1.20
2022-08-23T10:49:23.487Z,0.90
2022-08-23T10:50:23.460Z,0.70
2022-08-23T10:51:31.977Z,1.00
2022-08-23T10:52:23.470Z,0.90
2022-08-23T10:53:23.429Z,0.60
2022-08-23T10:54:23.441Z,0.70
2022-08-23T10:55:23.424Z,0.80
2022-08-23T10:56:23.414Z,0.90
2022-08-23T10:57:23.383Z,0.80
2022-08-23T10:58:23.393Z,0.70
2022-08-23T10:59:23.389Z,0.70
2022-08-23T11:00:23.390Z,0.90
2022-08-23T11:01:23.412Z,0.70
2022-08-23T11:02:23.372Z,0.80
2022-08-23T11:03:28.215Z,0.90
2022-08-23T11:04:23.326Z,0.90
2022-08-23T11:05:23.310Z,0.80
2022-08-23T11:06:23.297Z,0.70
2022-08-23T11:07:23.286Z,0.70
2022-08-23T11:08:23.290Z,0.70
2022-08-23T11:09:25.834Z,0.50
2022-08-23T11:10:23.268Z,0.80
2022-08-23T11:11:23.248Z,1.00
2022-08-23T11:12:23.240Z,0.70
2022-08-23T11:13:23.231Z,0.80
2022-08-23T11:14:23.232Z,0.60
2022-08-23T11:15:23.215Z,0.60
2022-08-23T11:16:23.219Z,0.70
2022-08-23T11:17:23.178Z,0.60
2022-08-23T11:18:23.196Z,0.80
2022-08-23T11:19:23.176Z,0.90
2022-08-23T11:20:23.164Z,0.70
2022-08-23T11:21:23.141Z,1.00
2022-08-23T11:22:23.134Z,0.70
2022-08-23T11:23:23.153Z,0.70
2022-08-23T11:24:23.112Z,0.70
2022-08-23T11:25:23.113Z,0.70
2022-08-23T11:26:23.095Z,0.60
2022-08-23T11:27:23.083Z,0.70
2022-08-23T11:28:23.096Z,0.80
2022-08-23T11:29:23.067Z,0.50
2022-08-23T11:30:23.067Z,0.70
2022-08-23T11:31:23.076Z,0.70
2022-08-23T11:32:25.942Z,0.60
2022-08-23T11:33:23.043Z,0.70
2022-08-23T11:34:27.327Z,0.80
2022-08-23T11:35:23.006Z,0.70
2022-08-23T11:36:23.014Z,0.60
2022-08-23T11:37:23.486Z,0.80
2022-08-23T11:38:22.992Z,0.60
2022-08-23T11:39:25.265Z,0.70
2022-08-23T11:40:23.007Z,0.80
2022-08-23T11:41:22.952Z,0.60
2022-08-23T11:42:22.933Z,0.80
2022-08-23T11:43:22.958Z,1.00
2022-08-23T11:44:22.923Z,0.70
2022-08-23T11:45:22.907Z,0.80
2022-08-23T11:46:22.919Z,1.00
2022-08-23T11:47:22.907Z,0.70
2022-08-23T11:48:22.892Z,0.90
2022-08-23T11:49:22.867Z,0.70
2022-08-23T11:50:22.846Z,0.80
2022-08-23T11:51:22.842Z,0.80
2022-08-23T11:52:22.827Z,0.80
2022-08-23T11:53:22.865Z,0.70
2022-08-23T11:54:22.810Z,0.70
2022-08-23T11:55:22.815Z,0.70
2022-08-23T11:56:22.785Z,0.60
2022-08-23T11:57:22.802Z,0.80
2022-08-23T11:58:22.794Z,0.90
2022-08-23T11:59:22.765Z,0.90
2022-08-23T12:00:28.951Z,0.90
2022-08-23T12:01:22.751Z,0.80
2022-08-23T12:02:22.857Z,0.90
2022-08-23T12:03:22.877Z,0.70
2022-08-23T12:04:22.715Z,0.90
2022-08-23T12:05:22.929Z,1.00
2022-08-23T12:06:22.710Z,1.10
2022-08-23T12:07:22.690Z,0.80
2022-08-23T12:08:22.691Z,1.00
2022-08-23T12:09:22.676Z,1.20
2022-08-23T12:10:22.661Z,1.30
2022-08-23T12:11:23.567Z,1.00
2022-08-23T12:12:22.698Z,1.00
2022-08-23T12:13:22.637Z,1.00
2022-08-23T12:14:22.647Z,0.90
2022-08-23T12:15:22.757Z,0.90
2022-08-23T12:16:22.766Z,0.70
2022-08-23T12:17:22.586Z,0.70
2022-08-23T12:18:25.257Z,1.00
2022-08-23T12:19:22.580Z,0.80
2022-08-23T12:20:22.562Z,0.90
2022-08-23T12:21:22.541Z,0.90
2022-08-23T12:22:22.557Z,0.90
2022-08-23T12:23:22.525Z,1.30
2022-08-23T12:24:22.540Z,1.00
2022-08-23T12:25:22.507Z,1.00
2022-08-23T12:26:22.482Z,1.00
2022-08-23T12:27:22.497Z,0.90
2022-08-23T12:28:22.489Z,0.90
2022-08-23T12:29:22.475Z,1.00
2022-08-23T12:30:22.447Z,1.20
2022-08-23T12:31:22.573Z,0.80
2022-08-23T12:32:22.424Z,1.00
2022-08-23T12:33:22.440Z,1.00
2022-08-23T12:34:22.480Z,1.00
2022-08-23T12:35:22.402Z,1.00
2022-08-23T12:36:22.383Z,0.90
2022-08-23T12:37:22.380Z,0.80
2022-08-23T12:38:22.365Z,1.00
2022-08-23T12:39:22.384Z,0.90
2022-08-23T12:40:22.401Z,1.00
2022-08-23T12:41:22.341Z,0.80
2022-08-23T12:42:22.347Z,1.00
2022-08-23T12:43:22.596Z,0.80
2022-08-23T12:44:22.323Z,0.90
2022-08-23T12:45:22.300Z,0.90
2022-08-23T12:46:22.360Z,0.80
2022-08-23T12:47:22.281Z,0.90
2022-08-23T12:48:22.301Z,1.00
2022-08-23T12:49:22.276Z,0.80
2022-08-23T12:50:22.250Z,0.90
2022-08-23T12:51:22.249Z,1.00
2022-08-23T12:52:22.222Z,1.00
2022-08-23T12:53:22.242Z,0.80
2022-08-23T12:54:22.498Z,0.90
2022-08-23T12:55:22.213Z,1.00
2022-08-23T12:56:22.186Z,0.80
2022-08-23T12:57:22.194Z,1.00
2022-08-23T12:58:22.180Z,0.90
2022-08-23T12:59:22.166Z,0.80
2022-08-23T13:00:22.171Z,0.90
2022-08-23T13:01:22.217Z,1.50
2022-08-23T13:02:22.197Z,1.00
2022-08-23T13:03:22.125Z,1.20
2022-08-23T13:04:22.139Z,0.90
2022-08-23T13:05:22.137Z,1.30
2022-08-23T13:06:22.086Z,0.90
2022-08-23T13:07:22.092Z,0.80
2022-08-23T13:08:27.384Z,1.10
2022-08-23T13:09:22.069Z,0.90
2022-08-23T13:10:22.089Z,1.00
2022-08-23T13:11:22.079Z,0.90
2022-08-23T13:12:22.023Z,0.80
2022-08-23T13:13:22.031Z,0.90
2022-08-23T13:14:22.017Z,0.70
2022-08-23T13:15:22.026Z,1.00
2022-08-23T13:16:26.631Z,0.80
2022-08-23T13:17:21.994Z,0.90
2022-08-23T13:18:21.966Z,0.70
2022-08-23T13:19:21.963Z,1.00